createdAt,value
2019-01-14T00:01:00.957Z,14.13
2019-01-14T00:03:28.299Z,8.17
2019-01-14T00:05:55.809Z,11.60
2019-01-14T00:08:23.166Z,16.27
2019-01-14T00:10:50.481Z,9.40
2019-01-14T00:13:17.730Z,11.73
2019-01-14T00:15:44.998Z,10.27
2019-01-14T00:18:12.318Z,14.93
2019-01-14T00:20:39.846Z,8.70
2019-01-14T00:23:07.362Z,12.17
2019-01-14T00:25:34.884Z,9.23
2019-01-14T00:28:02.134Z,10.13
2019-01-14T00:30:29.412Z,9.80
2019-01-14T00:32:57.057Z,9.07
2019-01-14T00:35:24.382Z,8.73
2019-01-14T00:37:51.632Z,12.87
2019-01-14T00:40:18.906Z,10.47
2019-01-14T00:42:46.625Z,14.43
2019-01-14T00:45:13.977Z,7.97
2019-01-14T00:47:41.226Z,15.77
2019-01-14T00:50:10.217Z,9.57
2019-01-14T00:52:37.474Z,11.37
2019-01-14T00:55:05.313Z,13.70
2019-01-14T00:57:32.558Z,8.77
2019-01-14T00:59:59.832Z,9.07
2019-01-14T01:02:27.074Z,7.43
2019-01-14T01:04:54.339Z,7.80
2019-01-14T01:07:21.856Z,4.00
2019-01-14T01:09:49.102Z,11.20
2019-01-14T01:12:16.370Z,7.63
2019-01-14T01:14:43.615Z,8.30
2019-01-14T01:17:10.885Z,6.97
2019-01-14T01:19:38.129Z,10.87
2019-01-14T01:22:05.401Z,9.00
2019-01-14T01:24:32.680Z,4.87
2019-01-14T01:26:59.930Z,5.20
2019-01-14T01:29:27.442Z,11.43
2019-01-14T01:31:54.717Z,8.23
2019-01-14T01:34:22.238Z,11.03
2019-01-14T01:36:49.477Z,7.07
2019-01-14T01:39:16.750Z,11.00
2019-01-14T01:41:43.990Z,5.10
2019-01-14T01:44:11.268Z,6.60
2019-01-14T01:46:38.533Z,7.73
2019-01-14T01:49:05.818Z,6.83
2019-01-14T01:51:33.059Z,6.60
2019-01-14T01:54:00.297Z,9.87
2019-01-14T01:56:27.564Z,12.17
2019-01-14T01:58:54.889Z,6.20
2019-01-14T02:01:22.163Z,5.47
2019-01-14T02:03:49.435Z,5.70
2019-01-14T02:06:16.938Z,13.23
2019-01-14T02:08:44.206Z,5.13
2019-01-14T02:11:11.731Z,5.23
2019-01-14T02:13:39.241Z,10.47
2019-01-14T02:16:06.511Z,5.73
2019-01-14T02:18:33.758Z,3.83
2019-01-14T02:21:01.017Z,3.00
2019-01-14T02:23:28.263Z,5.33
2019-01-14T02:25:55.535Z,5.60
2019-01-14T02:28:22.782Z,5.53
2019-01-14T02:30:50.044Z,2.70
2019-01-14T02:33:17.314Z,1.73
2019-01-14T02:35:44.553Z,2.10
2019-01-14T02:38:11.829Z,2.93
2019-01-14T02:40:39.320Z,1.80
2019-01-14T02:43:06.589Z,1.27
2019-01-14T02:45:33.831Z,3.87
2019-01-14T02:48:01.105Z,4.40
2019-01-14T02:50:28.414Z,6.20
2019-01-14T02:52:55.686Z,4.50
2019-01-14T02:55:22.931Z,2.20
2019-01-14T02:57:50.208Z,4.33
2019-01-14T03:00:18.913Z,2.00
2019-01-14T03:02:46.258Z,2.10
2019-01-14T03:05:14.001Z,2.60
2019-01-14T03:07:41.244Z,3.43
2019-01-14T03:10:09.660Z,1.50
2019-01-14T03:12:37.298Z,3.47
2019-01-14T03:15:06.054Z,3.13
2019-01-14T03:17:33.292Z,2.83
2019-01-14T03:20:00.538Z,2.00
2019-01-14T03:22:27.805Z,5.67
2019-01-14T03:24:55.045Z,3.53
2019-01-14T03:27:22.317Z,3.93
2019-01-14T03:29:49.562Z,5.77
2019-01-14T03:32:16.834Z,4.57
2019-01-14T03:34:44.085Z,4.00
2019-01-14T03:37:11.610Z,4.97
2019-01-14T03:39:38.879Z,5.53
2019-01-14T03:42:06.126Z,5.50
2019-01-14T03:44:33.479Z,4.50
2019-01-14T03:47:00.734Z,10.50
2019-01-14T03:49:27.978Z,6.43
2019-01-14T03:51:55.249Z,6.90
2019-01-14T03:54:22.558Z,7.30
2019-01-14T03:56:49.830Z,7.33
2019-01-14T03:59:17.069Z,5.67
2019-01-14T04:01:44.337Z,17.10
2019-01-14T04:04:11.842Z,8.20
2019-01-14T04:06:39.374Z,15.23
2019-01-14T04:09:06.816Z,7.67
2019-01-14T04:11:34.155Z,9.23
2019-01-14T04:14:01.421Z,12.00
2019-01-14T04:16:28.700Z,10.93
2019-01-14T04:18:55.957Z,11.23
2019-01-14T04:21:23.229Z,15.83
2019-01-14T04:23:50.507Z,14.53
2019-01-14T04:26:17.785Z,10.93
2019-01-14T04:28:45.021Z,14.37
2019-01-14T04:31:12.294Z,7.63
2019-01-14T04:33:39.798Z,11.57
2019-01-14T04:36:07.062Z,14.47
2019-01-14T04:38:34.810Z,12.53
2019-01-14T04:41:02.122Z,9.50
2019-01-14T04:43:29.397Z,10.80
2019-01-14T04:45:56.642Z,17.50
2019-01-14T04:48:23.922Z,7.00
2019-01-14T04:50:51.422Z,10.17
2019-01-14T04:53:18.695Z,10.43
2019-01-14T04:55:46.011Z,10.07
2019-01-14T04:58:13.286Z,11.67
2019-01-14T05:00:40.555Z,5.77
2019-01-14T05:03:07.835Z,11.97
2019-01-14T05:05:35.082Z,13.17
2019-01-14T05:08:02.358Z,10.67
2019-01-14T05:10:29.802Z,8.83
2019-01-14T05:12:57.114Z,7.87
2019-01-14T05:15:24.398Z,9.87
2019-01-14T05:17:51.641Z,9.77
2019-01-14T05:20:20.426Z,10.87
2019-01-14T05:22:47.974Z,11.17
2019-01-14T05:25:15.564Z,10.57
2019-01-14T05:27:42.914Z,5.37
2019-01-14T05:30:11.948Z,7.23
2019-01-14T05:32:39.222Z,11.40
2019-01-14T05:35:07.270Z,10.30
2019-01-14T05:37:37.574Z,7.97
2019-01-14T05:40:05.072Z,7.30
2019-01-14T05:42:32.311Z,7.00
2019-01-14T05:44:59.550Z,6.53
2019-01-14T05:47:26.827Z,5.57
2019-01-14T05:49:54.109Z,11.03
2019-01-14T05:52:21.590Z,6.60
2019-01-14T05:54:48.874Z,6.90
2019-01-14T05:57:16.122Z,3.87
2019-01-14T05:59:43.363Z,9.90
2019-01-14T06:02:10.886Z,13.30
2019-01-14T06:04:38.133Z,12.90
2019-01-14T06:07:05.505Z,9.73
2019-01-14T06:09:32.795Z,10.27
2019-01-14T06:12:00.069Z,9.97
2019-01-14T06:14:27.322Z,11.07
2019-01-14T06:16:54.593Z,11.33
2019-01-14T06:19:21.858Z,6.73
2019-01-14T06:21:49.112Z,14.43
2019-01-14T06:24:16.634Z,8.47
2019-01-14T06:26:43.994Z,10.37
2019-01-14T06:29:11.247Z,13.70
2019-01-14T06:31:38.629Z,11.70
2019-01-14T06:34:06.139Z,12.27
2019-01-14T06:36:33.678Z,8.60
2019-01-14T06:39:00.921Z,13.40
2019-01-14T06:41:28.430Z,7.10
2019-01-14T06:43:55.965Z,13.37
2019-01-14T06:46:24.234Z,7.57
2019-01-14T06:48:51.514Z,12.13
2019-01-14T06:51:19.048Z,9.97
2019-01-14T06:53:46.332Z,12.07
2019-01-14T06:56:13.575Z,9.37
2019-01-14T06:58:40.847Z,10.90
2019-01-14T07:01:08.122Z,10.00
2019-01-14T07:03:35.717Z,9.53
2019-01-14T07:06:03.134Z,11.40
2019-01-14T07:08:30.405Z,9.83
2019-01-14T07:10:57.716Z,7.47
2019-01-14T07:13:24.966Z,7.83
2019-01-14T07:15:52.232Z,7.10
2019-01-14T07:18:19.473Z,9.77
2019-01-14T07:20:46.767Z,7.50
2019-01-14T07:23:14.015Z,11.03
2019-01-14T07:25:41.254Z,5.30
2019-01-14T07:28:08.532Z,8.23
2019-01-14T07:30:35.780Z,8.37
2019-01-14T07:33:03.058Z,5.07
2019-01-14T07:35:30.386Z,5.77
2019-01-14T07:37:57.631Z,5.70
2019-01-14T07:40:25.151Z,6.63
2019-01-14T07:42:52.404Z,12.30
2019-01-14T07:45:20.117Z,13.00
2019-01-14T07:47:47.358Z,7.53
2019-01-14T07:50:16.373Z,11.10
2019-01-14T07:52:43.641Z,7.40
2019-01-14T07:55:11.061Z,12.17
2019-01-14T07:57:38.578Z,4.30
2019-01-14T08:00:07.732Z,7.37
2019-01-14T08:02:35.009Z,11.27
2019-01-14T08:05:02.536Z,5.87
2019-01-14T08:07:29.878Z,5.60
2019-01-14T08:09:57.123Z,4.23
2019-01-14T08:12:24.397Z,5.00
2019-01-14T08:14:51.643Z,8.47
2019-01-14T08:17:19.129Z,5.70
2019-01-14T08:19:46.671Z,9.97
2019-01-14T08:22:13.915Z,6.77
2019-01-14T08:24:41.153Z,3.87
2019-01-14T08:27:08.676Z,7.40
2019-01-14T08:29:36.182Z,5.80
2019-01-14T08:32:03.777Z,3.60
2019-01-14T08:34:31.018Z,6.87
2019-01-14T08:37:00.769Z,2.57
2019-01-14T08:39:27.313Z,5.10
2019-01-14T08:41:56.197Z,3.43
2019-01-14T08:44:25.104Z,1.07
2019-01-14T08:46:52.358Z,0.97
2019-01-14T08:49:19.621Z,0.80
2019-01-14T08:51:46.893Z,2.80
2019-01-14T08:54:14.213Z,4.40
2019-01-14T08:56:41.498Z,2.50
2019-01-14T08:59:08.982Z,1.90
2019-01-14T09:01:36.386Z,1.67
2019-01-14T09:04:04.114Z,1.40
2019-01-14T09:06:31.389Z,2.10
2019-01-14T09:08:58.872Z,3.17
2019-01-14T09:11:26.142Z,1.40
2019-01-14T09:13:53.659Z,1.10
2019-01-14T09:16:20.929Z,0.90
2019-01-14T09:18:48.423Z,1.73
2019-01-14T09:21:15.681Z,0.80
2019-01-14T09:23:42.966Z,0.90
2019-01-14T09:26:10.206Z,1.57
2019-01-14T09:28:37.617Z,1.50
2019-01-14T09:31:04.883Z,1.23
2019-01-14T09:33:32.154Z,1.67
2019-01-14T09:35:59.427Z,2.27
2019-01-14T09:38:26.671Z,3.43
2019-01-14T09:40:53.948Z,1.43
2019-01-14T09:43:21.193Z,1.67
2019-01-14T09:45:48.468Z,1.03
2019-01-14T09:48:15.714Z,0.93
2019-01-14T09:50:42.953Z,0.83
2019-01-14T09:53:10.225Z,2.00
2019-01-14T09:55:37.469Z,1.17
2019-01-14T09:58:04.737Z,0.80
2019-01-14T10:00:31.978Z,1.00
2019-01-14T10:02:59.266Z,1.10
2019-01-14T10:05:26.501Z,1.87
2019-01-14T10:07:53.749Z,2.10
2019-01-14T10:10:21.263Z,1.07
2019-01-14T10:12:48.606Z,4.00
2019-01-14T10:15:17.023Z,2.17
2019-01-14T10:17:44.439Z,3.20
2019-01-14T10:20:11.895Z,2.63
2019-01-14T10:22:39.389Z,2.40
2019-01-14T10:25:07.693Z,3.70
2019-01-14T10:27:34.965Z,2.60
2019-01-14T10:30:02.241Z,1.70
2019-01-14T10:32:29.478Z,3.23
2019-01-14T10:34:56.750Z,3.57
2019-01-14T10:37:24.023Z,5.60
2019-01-14T10:39:51.521Z,3.13
2019-01-14T10:42:18.793Z,2.00
2019-01-14T10:44:46.034Z,4.67
2019-01-14T10:47:13.299Z,2.17
2019-01-14T10:49:40.828Z,2.03
2019-01-14T10:52:08.071Z,2.47
2019-01-14T10:54:35.314Z,1.80
2019-01-14T10:57:02.596Z,2.97
2019-01-14T10:59:29.858Z,4.13
2019-01-14T11:01:57.121Z,3.97
2019-01-14T11:04:24.390Z,3.37
2019-01-14T11:06:51.631Z,1.53
2019-01-14T11:09:18.910Z,2.60
2019-01-14T11:11:46.260Z,5.47
2019-01-14T11:14:13.535Z,3.23
2019-01-14T11:16:40.769Z,6.03
2019-01-14T11:19:08.047Z,2.17
2019-01-14T11:21:35.570Z,4.17
2019-01-14T11:24:03.054Z,3.00
2019-01-14T11:26:30.399Z,2.60
2019-01-14T11:28:57.907Z,3.90
2019-01-14T11:31:25.418Z,4.87
2019-01-14T11:33:52.915Z,4.77
2019-01-14T11:36:20.258Z,4.50
2019-01-14T11:38:47.973Z,10.53
2019-01-14T11:41:15.254Z,3.90
2019-01-14T11:43:42.525Z,6.03
2019-01-14T11:46:09.782Z,6.50
2019-01-14T11:48:37.048Z,5.00
2019-01-14T11:51:04.760Z,8.97
2019-01-14T11:53:32.032Z,4.00
2019-01-14T11:55:59.304Z,7.43
2019-01-14T11:58:26.546Z,5.00
2019-01-14T12:00:53.812Z,5.13
2019-01-14T12:03:21.057Z,4.73
2019-01-14T12:05:48.326Z,7.50
2019-01-14T12:08:15.573Z,5.80
2019-01-14T12:10:43.114Z,6.97
2019-01-14T12:13:10.606Z,6.20
2019-01-14T12:15:37.849Z,7.20
2019-01-14T12:18:05.118Z,4.30
2019-01-14T12:20:32.381Z,9.70
2019-01-14T12:22:59.731Z,8.60
2019-01-14T12:25:27.246Z,6.90
2019-01-14T12:27:54.513Z,4.20
2019-01-14T12:30:26.361Z,6.27
2019-01-14T12:32:53.633Z,5.90
2019-01-14T12:35:20.973Z,11.13
2019-01-14T12:37:48.517Z,8.63
2019-01-14T12:40:16.101Z,10.77
2019-01-14T12:42:43.639Z,7.60
2019-01-14T12:45:12.249Z,5.00
2019-01-14T12:47:39.495Z,5.27
2019-01-14T12:50:08.642Z,5.27
2019-01-14T12:52:35.918Z,8.80
2019-01-14T12:55:04.305Z,10.93
2019-01-14T12:57:31.789Z,8.17
2019-01-14T12:59:59.062Z,5.67
2019-01-14T13:02:26.574Z,5.80
2019-01-14T13:04:53.812Z,6.00
2019-01-14T13:07:21.158Z,7.80
2019-01-14T13:09:48.405Z,10.33
2019-01-14T13:12:15.926Z,9.67
2019-01-14T13:14:43.448Z,8.80
2019-01-14T13:17:10.685Z,8.97
2019-01-14T13:19:37.953Z,9.37
2019-01-14T13:22:05.370Z,12.07
2019-01-14T13:24:32.605Z,6.20
2019-01-14T13:26:59.881Z,7.17
2019-01-14T13:29:27.397Z,8.37
2019-01-14T13:31:54.673Z,7.67
2019-01-14T13:34:21.952Z,5.87
2019-01-14T13:36:49.215Z,6.63
2019-01-14T13:39:16.466Z,15.27
2019-01-14T13:41:43.733Z,4.73
2019-01-14T13:44:10.974Z,8.90
2019-01-14T13:46:38.247Z,12.83
2019-01-14T13:49:05.513Z,5.47
2019-01-14T13:51:32.756Z,6.83
2019-01-14T13:54:00.030Z,6.27
2019-01-14T13:56:27.272Z,9.30
2019-01-14T13:58:54.539Z,11.13
2019-01-14T14:01:21.850Z,9.37
2019-01-14T14:03:49.408Z,14.50
2019-01-14T14:06:16.650Z,17.40
2019-01-14T14:08:43.922Z,8.37
2019-01-14T14:11:11.169Z,13.97
2019-01-14T14:13:38.525Z,7.50
2019-01-14T14:16:06.114Z,7.60
2019-01-14T14:18:33.614Z,7.73
2019-01-14T14:21:01.621Z,8.67
2019-01-14T14:23:28.909Z,6.10
2019-01-14T14:25:56.289Z,9.10
2019-01-14T14:28:24.138Z,5.40
2019-01-14T14:30:51.383Z,8.03
2019-01-14T14:33:18.669Z,4.97
2019-01-14T14:35:45.984Z,6.93
2019-01-14T14:38:13.898Z,9.47
2019-01-14T14:40:41.765Z,4.67
2019-01-14T14:43:09.014Z,8.10
2019-01-14T14:45:36.286Z,7.93
2019-01-14T14:48:03.597Z,10.07
2019-01-14T14:50:30.876Z,7.77
2019-01-14T14:52:58.366Z,4.27
2019-01-14T14:55:25.602Z,4.67
2019-01-14T14:57:52.938Z,10.17
2019-01-14T15:00:20.954Z,9.37
2019-01-14T15:02:48.233Z,12.80
2019-01-14T15:05:16.501Z,8.67
2019-01-14T15:07:44.092Z,6.17
2019-01-14T15:10:12.858Z,9.40
2019-01-14T15:12:40.129Z,4.97
2019-01-14T15:15:09.041Z,6.20
2019-01-14T15:17:36.282Z,4.60
2019-01-14T15:20:05.095Z,8.17
2019-01-14T15:22:32.377Z,3.67
2019-01-14T15:24:59.872Z,7.00
2019-01-14T15:27:27.189Z,6.30
2019-01-14T15:29:54.751Z,9.57
2019-01-14T15:32:22.058Z,8.13
2019-01-14T15:34:49.681Z,7.03
2019-01-14T15:37:16.920Z,3.67
2019-01-14T15:39:44.186Z,7.50
2019-01-14T15:42:11.430Z,3.97
2019-01-14T15:44:38.698Z,7.10
2019-01-14T15:47:06.194Z,5.33
2019-01-14T15:49:33.722Z,5.37
2019-01-14T15:52:00.961Z,6.27
2019-01-14T15:54:28.249Z,3.53
2019-01-14T15:56:55.557Z,5.83
2019-01-14T15:59:22.830Z,5.70
2019-01-14T16:01:50.350Z,9.60
2019-01-14T16:04:17.591Z,7.20
2019-01-14T16:06:45.108Z,3.30
2019-01-14T16:09:12.366Z,3.20
2019-01-14T16:11:39.634Z,5.93
2019-01-14T16:14:06.980Z,3.47
2019-01-14T16:16:34.481Z,2.07
2019-01-14T16:19:01.753Z,3.63
2019-01-14T16:21:29.069Z,3.93
2019-01-14T16:23:56.334Z,5.53
2019-01-14T16:26:23.850Z,5.40
2019-01-14T16:28:51.142Z,3.90
2019-01-14T16:31:18.621Z,6.33
2019-01-14T16:33:46.121Z,7.33
2019-01-14T16:36:13.394Z,6.63
2019-01-14T16:38:40.944Z,13.00
2019-01-14T16:41:08.286Z,9.03
2019-01-14T16:43:35.556Z,7.90
2019-01-14T16:46:02.827Z,8.17
2019-01-14T16:48:30.317Z,3.77
2019-01-14T16:50:57.669Z,4.83
2019-01-14T16:53:24.938Z,8.87
2019-01-14T16:55:52.449Z,3.30
2019-01-14T16:58:19.694Z,6.90
2019-01-14T17:00:47.055Z,9.77
2019-01-14T17:03:14.556Z,4.30
2019-01-14T17:05:41.879Z,7.63
2019-01-14T17:08:09.150Z,6.17
2019-01-14T17:10:36.430Z,6.83
2019-01-14T17:13:03.743Z,6.80
2019-01-14T17:15:31.264Z,3.47
2019-01-14T17:17:58.766Z,11.37
2019-01-14T17:20:26.290Z,7.00
2019-01-14T17:22:53.529Z,9.73
2019-01-14T17:25:20.802Z,6.97
2019-01-14T17:27:48.046Z,9.23
2019-01-14T17:30:16.531Z,9.10
2019-01-14T17:32:43.814Z,10.93
2019-01-14T17:35:11.058Z,7.07
2019-01-14T17:37:38.570Z,8.37
2019-01-14T17:40:07.405Z,11.00
2019-01-14T17:42:34.681Z,8.87
2019-01-14T17:45:01.931Z,8.97
2019-01-14T17:47:29.202Z,7.57
2019-01-14T17:49:56.447Z,7.10
2019-01-14T17:52:23.711Z,11.17
2019-01-14T17:54:50.957Z,6.50
2019-01-14T17:57:18.217Z,5.53
2019-01-14T17:59:45.490Z,9.20
2019-01-14T18:02:12.757Z,6.83
2019-01-14T18:04:40.026Z,11.73
2019-01-14T18:07:07.519Z,11.30
2019-01-14T18:09:34.890Z,15.43
2019-01-14T18:12:02.145Z,10.30
2019-01-14T18:14:29.386Z,8.90
2019-01-14T18:16:56.645Z,6.90
2019-01-14T18:19:23.923Z,11.80
2019-01-14T18:21:51.418Z,11.93
2019-01-14T18:24:18.692Z,10.33
2019-01-14T18:26:45.970Z,10.83
2019-01-14T18:29:13.262Z,11.70
2019-01-14T18:31:40.565Z,6.60
2019-01-14T18:34:07.893Z,9.03
2019-01-14T18:36:35.166Z,5.90
2019-01-14T18:39:02.440Z,7.37
2019-01-14T18:41:29.718Z,9.23
2019-01-14T18:43:56.981Z,7.10
2019-01-14T18:46:24.249Z,8.73
2019-01-14T18:48:51.769Z,9.37
2019-01-14T18:51:19.044Z,8.97
2019-01-14T18:53:46.287Z,8.70
2019-01-14T18:56:13.562Z,4.80
2019-01-14T18:58:41.057Z,11.87
2019-01-14T19:01:08.576Z,9.37
2019-01-14T19:03:35.819Z,10.57
2019-01-14T19:06:03.089Z,8.97
2019-01-14T19:08:30.577Z,7.57
2019-01-14T19:10:58.383Z,3.97
2019-01-14T19:13:26.045Z,10.30
2019-01-14T19:15:53.354Z,7.30
2019-01-14T19:18:20.613Z,6.57
2019-01-14T19:20:47.894Z,6.80
2019-01-14T19:23:15.168Z,11.70
2019-01-14T19:25:42.418Z,8.53
2019-01-14T19:28:09.720Z,5.80
2019-01-14T19:30:37.075Z,5.90
2019-01-14T19:33:04.354Z,6.17
2019-01-14T19:35:31.598Z,7.87
2019-01-14T19:37:58.842Z,6.17
2019-01-14T19:40:26.129Z,7.90
2019-01-14T19:42:53.445Z,10.70
2019-01-14T19:45:20.969Z,12.60
2019-01-14T19:47:48.297Z,8.33
2019-01-14T19:50:16.972Z,7.87
2019-01-14T19:52:44.313Z,5.57
2019-01-14T19:55:12.865Z,7.07
2019-01-14T19:57:40.302Z,8.80
2019-01-14T20:00:09.111Z,6.77
2019-01-14T20:02:36.362Z,10.83
2019-01-14T20:05:04.466Z,9.03
2019-01-14T20:07:31.730Z,8.60
2019-01-14T20:09:59.249Z,7.93
2019-01-14T20:12:26.753Z,8.80
2019-01-14T20:14:54.261Z,7.73
2019-01-14T20:17:21.536Z,13.10
2019-01-14T20:19:48.806Z,7.80
2019-01-14T20:22:16.085Z,9.10
2019-01-14T20:24:43.335Z,7.87
2019-01-14T20:27:10.840Z,8.73
2019-01-14T20:29:38.380Z,9.30
2019-01-14T20:32:05.654Z,10.73
2019-01-14T20:34:32.897Z,14.27
2019-01-14T20:37:00.424Z,7.87
2019-01-14T20:39:27.670Z,9.07
2019-01-14T20:41:54.954Z,11.50
2019-01-14T20:44:22.189Z,11.57
2019-01-14T20:46:49.471Z,8.10
2019-01-14T20:49:16.723Z,7.67
2019-01-14T20:51:44.229Z,18.17
2019-01-14T20:54:11.507Z,10.93
2019-01-14T20:56:38.758Z,10.00
2019-01-14T20:59:06.033Z,8.63
2019-01-14T21:01:33.546Z,11.60
2019-01-14T21:04:00.853Z,9.10
2019-01-14T21:06:28.097Z,10.77
2019-01-14T21:08:55.347Z,10.03
2019-01-14T21:11:24.025Z,9.83
2019-01-14T21:13:51.448Z,7.40
2019-01-14T21:16:18.956Z,10.50
2019-01-14T21:18:46.405Z,10.17
2019-01-14T21:21:13.896Z,7.00
2019-01-14T21:23:41.630Z,10.63
2019-01-14T21:26:08.947Z,10.97
2019-01-14T21:28:36.227Z,7.20
2019-01-14T21:31:03.502Z,14.50
2019-01-14T21:33:30.745Z,8.37
2019-01-14T21:35:58.026Z,12.90
2019-01-14T21:38:25.522Z,12.63
2019-01-14T21:40:52.801Z,11.03
2019-01-14T21:43:20.055Z,15.80
2019-01-14T21:45:47.335Z,11.73
2019-01-14T21:48:17.365Z,18.73
2019-01-14T21:50:43.969Z,14.43
2019-01-14T21:53:11.249Z,11.23
2019-01-14T21:55:38.502Z,8.90
2019-01-14T21:58:05.768Z,15.43
2019-01-14T22:00:33.312Z,11.10
2019-01-14T22:03:00.549Z,8.13
2019-01-14T22:05:27.793Z,11.73
2019-01-14T22:07:55.329Z,10.53
2019-01-14T22:10:23.455Z,11.67
2019-01-14T22:12:50.731Z,21.67
2019-01-14T22:15:17.972Z,19.73
2019-01-14T22:17:45.502Z,15.80
2019-01-14T22:20:19.387Z,11.13
2019-01-14T22:22:46.654Z,14.03
2019-01-14T22:25:14.157Z,15.70
2019-01-14T22:27:41.435Z,15.10
2019-01-14T22:30:10.417Z,8.83
2019-01-14T22:32:37.702Z,12.33
2019-01-14T22:35:05.517Z,10.10
2019-01-14T22:37:32.796Z,20.83
2019-01-14T22:40:00.298Z,19.80
2019-01-14T22:42:27.581Z,17.10
2019-01-14T22:44:54.830Z,11.47
2019-01-14T22:47:22.328Z,10.93
2019-01-14T22:49:49.614Z,10.50
2019-01-14T22:52:17.104Z,9.63
2019-01-14T22:54:44.375Z,11.03
2019-01-14T22:57:11.622Z,13.97
2019-01-14T22:59:38.878Z,25.63
2019-01-14T23:02:06.230Z,15.80
2019-01-14T23:04:33.488Z,10.17
2019-01-14T23:07:00.726Z,13.63
2019-01-14T23:09:27.998Z,13.57
2019-01-14T23:11:55.246Z,11.60
2019-01-14T23:14:22.774Z,15.70
2019-01-14T23:16:50.277Z,13.10
2019-01-14T23:19:17.805Z,11.67
2019-01-14T23:21:45.050Z,11.47
2019-01-14T23:24:12.325Z,9.40
2019-01-14T23:26:39.597Z,15.60
2019-01-14T23:29:06.849Z,11.93
2019-01-14T23:31:34.377Z,15.97
2019-01-14T23:34:01.869Z,16.40
2019-01-14T23:36:29.150Z,14.67
2019-01-14T23:38:56.398Z,15.67
2019-01-14T23:41:23.674Z,16.53
2019-01-14T23:43:50.989Z,21.40
2019-01-14T23:46:18.263Z,14.67
2019-01-14T23:48:45.541Z,15.00
2019-01-14T23:51:12.790Z,12.90
2019-01-14T23:53:40.066Z,16.90
2019-01-14T23:56:07.310Z,8.60
2019-01-14T23:58:34.852Z,10.40
